sensor_id;sensor_type;location;lat;lon;timestamp;pressure;altitude;pressure_sealevel;temperature;humidity
76746;BME280;65671;49.976;20.038;2023-05-10T00:00:37;98266.44;;;5.65;73.80
76746;BME280;65671;49.976;20.038;2023-05-10T00:03:02;98266.16;;;5.51;74.00
76746;BME280;65671;49.976;20.038;2023-05-10T00:05:30;98272.81;;;5.57;74.14
76746;BME280;65671;49.976;20.038;2023-05-10T00:07:56;98269.94;;;5.50;74.50
76746;BME280;65671;49.976;20.038;2023-05-10T00:10:22;98261.47;;;5.67;73.61
76746;BME280;65671;49.976;20.038;2023-05-10T00:12:47;98259.78;;;5.59;74.97
76746;BME280;65671;49.976;20.038;2023-05-10T00:15:13;98258.59;;;5.56;74.44
76746;BME280;65671;49.976;20.038;2023-05-10T00:17:38;98261.00;;;5.61;73.57
76746;BME280;65671;49.976;20.038;2023-05-10T00:20:05;98266.81;;;5.63;73.51
76746;BME280;65671;49.976;20.038;2023-05-10T00:22:31;98257.53;;;5.61;73.87
76746;BME280;65671;49.976;20.038;2023-05-10T00:24:58;98262.34;;;5.71;73.99
76746;BME280;65671;49.976;20.038;2023-05-10T00:27:24;98252.59;;;5.63;73.73
76746;BME280;65671;49.976;20.038;2023-05-10T00:29:49;98253.50;;;5.71;73.25
76746;BME280;65671;49.976;20.038;2023-05-10T00:32:15;98258.38;;;5.46;76.11
76746;BME280;65671;49.976;20.038;2023-05-10T00:34:41;98244.25;;;5.68;73.51
76746;BME280;65671;49.976;20.038;2023-05-10T00:37:06;98249.81;;;5.79;72.71
76746;BME280;65671;49.976;20.038;2023-05-10T00:39:32;98242.75;;;5.71;72.46
76746;BME280;65671;49.976;20.038;2023-05-10T00:41:58;98244.94;;;5.65;72.93
76746;BME280;65671;49.976;20.038;2023-05-10T00:44:23;98250.13;;;5.74;72.51
76746;BME280;65671;49.976;20.038;2023-05-10T00:46:49;98243.84;;;5.85;72.47
76746;BME280;65671;49.976;20.038;2023-05-10T00:49:15;98246.41;;;5.97;71.69
76746;BME280;65671;49.976;20.038;2023-05-10T00:51:41;98247.03;;;5.91;71.91
76746;BME280;65671;49.976;20.038;2023-05-10T00:54:11;98244.34;;;5.91;72.05
76746;BME280;65671;49.976;20.038;2023-05-10T00:56:37;98246.81;;;6.18;70.91
76746;BME280;65671;49.976;20.038;2023-05-10T00:59:03;98242.38;;;6.07;70.27
76746;BME280;65671;49.976;20.038;2023-05-10T01:01:29;98243.34;;;6.18;70.36
76746;BME280;65671;49.976;20.038;2023-05-10T01:03:55;98238.81;;;6.22;70.91
76746;BME280;65671;49.976;20.038;2023-05-10T01:06:22;98237.63;;;6.20;70.93
76746;BME280;65671;49.976;20.038;2023-05-10T01:08:48;98237.56;;;6.16;71.05
76746;BME280;65671;49.976;20.038;2023-05-10T01:11:14;98233.91;;;6.28;70.30
76746;BME280;65671;49.976;20.038;2023-05-10T01:13:42;98229.09;;;6.37;69.41
76746;BME280;65671;49.976;20.038;2023-05-10T01:16:08;98233.16;;;6.50;69.14
76746;BME280;65671;49.976;20.038;2023-05-10T01:18:38;98224.03;;;6.54;68.08
76746;BME280;65671;49.976;20.038;2023-05-10T01:26:32;98226.63;;;6.51;68.87
76746;BME280;65671;49.976;20.038;2023-05-10T01:32:47;98220.41;;;6.47;68.79
76746;BME280;65671;49.976;20.038;2023-05-10T01:35:03;98219.63;;;6.24;70.19
76746;BME280;65671;49.976;20.038;2023-05-10T01:37:51;98216.94;;;6.24;69.66
76746;BME280;65671;49.976;20.038;2023-05-10T01:40:26;98223.03;;;6.21;70.36
76746;BME280;65671;49.976;20.038;2023-05-10T01:43:00;98208.47;;;6.22;69.80
76746;BME280;65671;49.976;20.038;2023-05-10T01:45:31;98215.41;;;6.23;69.90
76746;BME280;65671;49.976;20.038;2023-05-10T01:48:11;98221.72;;;6.11;71.43
76746;BME280;65671;49.976;20.038;2023-05-10T01:50:40;98222.13;;;6.13;69.91
76746;BME280;65671;49.976;20.038;2023-05-10T01:53:08;98216.34;;;6.11;70.41
76746;BME280;65671;49.976;20.038;2023-05-10T01:55:41;98209.25;;;6.22;70.17
76746;BME280;65671;49.976;20.038;2023-05-10T01:58:13;98213.56;;;6.49;68.43
76746;BME280;65671;49.976;20.038;2023-05-10T02:00:43;98202.38;;;6.25;69.50
76746;BME280;65671;49.976;20.038;2023-05-10T02:03:10;98199.03;;;5.89;71.67
76746;BME280;65671;49.976;20.038;2023-05-10T02:05:38;98208.66;;;5.90;71.25
76746;BME280;65671;49.976;20.038;2023-05-10T02:08:06;98197.06;;;6.28;69.71
76746;BME280;65671;49.976;20.038;2023-05-10T02:10:35;98196.31;;;6.08;70.93
76746;BME280;65671;49.976;20.038;2023-05-10T02:13:02;98203.63;;;6.08;71.01
76746;BME280;65671;49.976;20.038;2023-05-10T02:15:29;98196.19;;;6.01;70.81
76746;BME280;65671;49.976;20.038;2023-05-10T02:17:58;98191.22;;;5.84;72.05
76746;BME280;65671;49.976;20.038;2023-05-10T02:20:26;98190.19;;;5.89;71.95
76746;BME280;65671;49.976;20.038;2023-05-10T02:22:54;98189.53;;;5.76;72.00
76746;BME280;65671;49.976;20.038;2023-05-10T02:25:21;98197.66;;;5.80;71.44
76746;BME280;65671;49.976;20.038;2023-05-10T02:27:48;98190.72;;;5.79;72.17
76746;BME280;65671;49.976;20.038;2023-05-10T02:30:16;98188.63;;;5.69;72.65
76746;BME280;65671;49.976;20.038;2023-05-10T02:32:44;98191.72;;;5.51;74.12
76746;BME280;65671;49.976;20.038;2023-05-10T02:35:11;98197.19;;;5.20;74.96
76746;BME280;65671;49.976;20.038;2023-05-10T02:37:38;98191.59;;;5.10;75.84
76746;BME280;65671;49.976;20.038;2023-05-10T02:40:06;98195.41;;;5.08;76.54
76746;BME280;65671;49.976;20.038;2023-05-10T02:42:36;98187.84;;;4.79;78.30
76746;BME280;65671;49.976;20.038;2023-05-10T02:45:07;98179.19;;;4.86;77.69
76746;BME280;65671;49.976;20.038;2023-05-10T02:47:33;98177.41;;;4.59;78.63
76746;BME280;65671;49.976;20.038;2023-05-10T02:49:59;98189.25;;;4.42;80.33
76746;BME280;65671;49.976;20.038;2023-05-10T02:52:28;98183.81;;;4.54;79.40
76746;BME280;65671;49.976;20.038;2023-05-10T02:54:56;98184.19;;;4.87;77.59
76746;BME280;65671;49.976;20.038;2023-05-10T02:57:31;98186.41;;;4.66;79.31
76746;BME280;65671;49.976;20.038;2023-05-10T02:59:57;98184.94;;;4.53;80.64
76746;BME280;65671;49.976;20.038;2023-05-10T03:02:23;98194.44;;;4.35;80.37
76746;BME280;65671;49.976;20.038;2023-05-10T03:04:49;98195.03;;;4.13;81.71
76746;BME280;65671;49.976;20.038;2023-05-10T03:07:14;98191.22;;;4.14;81.76
76746;BME280;65671;49.976;20.038;2023-05-10T03:09:41;98181.50;;;3.93;82.10
76746;BME280;65671;49.976;20.038;2023-05-10T03:12:29;98182.75;;;4.43;80.10
76746;BME280;65671;49.976;20.038;2023-05-10T03:15:19;98183.97;;;4.77;78.32
76746;BME280;65671;49.976;20.038;2023-05-10T03:17:53;98183.28;;;5.15;75.74
76746;BME280;65671;49.976;20.038;2023-05-10T03:20:33;98182.56;;;5.18;76.77
76746;BME280;65671;49.976;20.038;2023-05-10T03:23:11;98181.75;;;5.33;75.76
76746;BME280;65671;49.976;20.038;2023-05-10T03:25:39;98185.75;;;4.88;79.31
76746;BME280;65671;49.976;20.038;2023-05-10T03:28:06;98181.03;;;4.66;79.67
76746;BME280;65671;49.976;20.038;2023-05-10T03:30:33;98185.59;;;4.34;80.47
76746;BME280;65671;49.976;20.038;2023-05-10T03:33:07;98187.00;;;4.28;81.02
76746;BME280;65671;49.976;20.038;2023-05-10T03:35:33;98182.31;;;4.10;81.66
76746;BME280;65671;49.976;20.038;2023-05-10T03:37:59;98185.94;;;4.17;82.17
76746;BME280;65671;49.976;20.038;2023-05-10T03:40:26;98183.09;;;4.10;82.75
76746;BME280;65671;49.976;20.038;2023-05-10T03:42:54;98184.47;;;4.20;82.09
76746;BME280;65671;49.976;20.038;2023-05-10T03:45:20;98174.28;;;4.57;79.74
76746;BME280;65671;49.976;20.038;2023-05-10T03:47:46;98178.50;;;4.89;78.67
76746;BME280;65671;49.976;20.038;2023-05-10T03:50:11;98173.72;;;5.17;76.90
76746;BME280;65671;49.976;20.038;2023-05-10T03:52:37;98174.56;;;5.37;76.25
76746;BME280;65671;49.976;20.038;2023-05-10T03:55:05;98177.06;;;5.11;79.08
76746;BME280;65671;49.976;20.038;2023-05-10T03:57:31;98177.59;;;5.00;78.30
76746;BME280;65671;49.976;20.038;2023-05-10T03:59:57;98178.00;;;4.83;78.27
76746;BME280;65671;49.976;20.038;2023-05-10T04:02:23;98184.22;;;4.72;78.85
76746;BME280;65671;49.976;20.038;2023-05-10T04:04:48;98188.72;;;4.68;80.50
76746;BME280;65671;49.976;20.038;2023-05-10T04:07:14;98191.34;;;4.48;82.09
76746;BME280;65671;49.976;20.038;2023-05-10T04:09:40;98188.03;;;4.71;80.62
76746;BME280;65671;49.976;20.038;2023-05-10T04:12:06;98192.00;;;4.61;81.03
76746;BME280;65671;49.976;20.038;2023-05-10T04:14:31;98196.06;;;4.71;79.61
76746;BME280;65671;49.976;20.038;2023-05-10T04:16:57;98189.50;;;4.68;80.13
76746;BME280;65671;49.976;20.038;2023-05-10T04:19:23;98191.41;;;4.68;79.61
76746;BME280;65671;49.976;20.038;2023-05-10T04:21:48;98185.63;;;4.66;79.53
76746;BME280;65671;49.976;20.038;2023-05-10T04:24:14;98194.69;;;4.77;79.61
76746;BME280;65671;49.976;20.038;2023-05-10T04:26:40;98198.91;;;4.93;79.72
76746;BME280;65671;49.976;20.038;2023-05-10T04:29:06;98204.75;;;4.99;78.85
76746;BME280;65671;49.976;20.038;2023-05-10T04:31:32;98204.66;;;5.11;78.23
76746;BME280;65671;49.976;20.038;2023-05-10T04:33:57;98200.00;;;5.08;78.92
76746;BME280;65671;49.976;20.038;2023-05-10T04:36:23;98198.97;;;4.97;79.48
76746;BME280;65671;49.976;20.038;2023-05-10T04:38:48;98194.19;;;5.06;78.89
76746;BME280;65671;49.976;20.038;2023-05-10T04:41:14;98201.03;;;5.19;78.52
76746;BME280;65671;49.976;20.038;2023-05-10T04:43:39;98195.16;;;5.33;78.29
76746;BME280;65671;49.976;20.038;2023-05-10T04:46:06;98198.63;;;5.52;78.23
76746;BME280;65671;49.976;20.038;2023-05-10T04:48:35;98200.28;;;5.57;77.23
76746;BME280;65671;49.976;20.038;2023-05-10T04:51:00;98198.50;;;5.45;77.88
76746;BME280;65671;49.976;20.038;2023-05-10T04:53:26;98203.31;;;5.75;77.72
76746;BME280;65671;49.976;20.038;2023-05-10T04:55:51;98200.22;;;5.73;77.66
76746;BME280;65671;49.976;20.038;2023-05-10T04:58:17;98200.28;;;5.95;77.63
76746;BME280;65671;49.976;20.038;2023-05-10T05:00:42;98194.75;;;6.07;77.09
76746;BME280;65671;49.976;20.038;2023-05-10T05:03:09;98195.31;;;6.16;77.35
76746;BME280;65671;49.976;20.038;2023-05-10T05:05:35;98193.19;;;6.26;76.35
76746;BME280;65671;49.976;20.038;2023-05-10T05:08:00;98191.19;;;6.45;75.01
76746;BME280;65671;49.976;20.038;2023-05-10T05:10:26;98190.31;;;6.60;75.77
76746;BME280;65671;49.976;20.038;2023-05-10T05:12:51;98185.53;;;6.77;76.18
76746;BME280;65671;49.976;20.038;2023-05-10T05:15:17;98188.03;;;6.89;74.63
76746;BME280;65671;49.976;20.038;2023-05-10T05:17:43;98188.94;;;6.96;75.17
76746;BME280;65671;49.976;20.038;2023-05-10T05:20:09;98192.03;;;6.98;75.72
76746;BME280;65671;49.976;20.038;2023-05-10T05:22:38;98186.13;;;7.15;74.27
76746;BME280;65671;49.976;20.038;2023-05-10T05:25:05;98193.66;;;7.32;75.36
76746;BME280;65671;49.976;20.038;2023-05-10T05:27:31;98190.00;;;7.48;74.79
76746;BME280;65671;49.976;20.038;2023-05-10T05:29:57;98190.13;;;7.55;73.48
76746;BME280;65671;49.976;20.038;2023-05-10T05:32:24;98190.16;;;7.58;73.71
76746;BME280;65671;49.976;20.038;2023-05-10T05:34:49;98200.22;;;7.61;73.46
76746;BME280;65671;49.976;20.038;2023-05-10T05:37:17;98189.94;;;7.74;71.97
76746;BME280;65671;49.976;20.038;2023-05-10T05:39:43;98197.75;;;7.82;74.31
76746;BME280;65671;49.976;20.038;2023-05-10T05:42:10;98192.53;;;7.97;73.32
76746;BME280;65671;49.976;20.038;2023-05-10T05:44:35;98191.78;;;8.00;71.94
76746;BME280;65671;49.976;20.038;2023-05-10T05:47:01;98188.63;;;7.91;73.85
76746;BME280;65671;49.976;20.038;2023-05-10T05:49:26;98198.28;;;8.28;72.62
76746;BME280;65671;49.976;20.038;2023-05-10T05:51:52;98194.72;;;8.24;72.69
76746;BME280;65671;49.976;20.038;2023-05-10T05:54:17;98196.25;;;8.59;72.77
76746;BME280;65671;49.976;20.038;2023-05-10T05:56:43;98190.22;;;8.76;71.82
76746;BME280;65671;49.976;20.038;2023-05-10T05:59:12;98196.41;;;8.80;71.51
76746;BME280;65671;49.976;20.038;2023-05-10T06:01:38;98183.94;;;9.19;71.72
76746;BME280;65671;49.976;20.038;2023-05-10T06:04:03;98198.91;;;9.06;69.80
76746;BME280;65671;49.976;20.038;2023-05-10T06:06:29;98185.69;;;9.56;68.62
76746;BME280;65671;49.976;20.038;2023-05-10T06:08:55;98184.66;;;9.88;67.49
76746;BME280;65671;49.976;20.038;2023-05-10T06:11:20;98199.38;;;10.05;69.22
76746;BME280;65671;49.976;20.038;2023-05-10T06:13:47;98189.41;;;10.37;68.75
76746;BME280;65671;49.976;20.038;2023-05-10T06:16:13;98187.13;;;10.60;68.29
76746;BME280;65671;49.976;20.038;2023-05-10T06:18:39;98196.41;;;10.67;69.88
76746;BME280;65671;49.976;20.038;2023-05-10T06:21:04;98187.91;;;10.72;66.31
76746;BME280;65671;49.976;20.038;2023-05-10T06:23:30;98191.00;;;10.56;69.01
76746;BME280;65671;49.976;20.038;2023-05-10T06:25:55;98197.19;;;10.63;66.20
76746;BME280;65671;49.976;20.038;2023-05-10T06:28:21;98201.81;;;10.81;65.74
76746;BME280;65671;49.976;20.038;2023-05-10T06:30:46;98201.06;;;10.91;65.74
76746;BME280;65671;49.976;20.038;2023-05-10T06:33:13;98200.28;;;10.94;64.42
76746;BME280;65671;49.976;20.038;2023-05-10T06:35:38;98200.25;;;11.08;64.80
76746;BME280;65671;49.976;20.038;2023-05-10T06:38:04;98197.50;;;11.26;66.67
76746;BME280;65671;49.976;20.038;2023-05-10T06:40:30;98201.31;;;11.49;65.29
76746;BME280;65671;49.976;20.038;2023-05-10T06:42:55;98204.03;;;11.60;64.20
76746;BME280;65671;49.976;20.038;2023-05-10T06:45:21;98201.69;;;11.65;65.87
76746;BME280;65671;49.976;20.038;2023-05-10T06:47:46;98191.97;;;11.64;63.38
76746;BME280;65671;49.976;20.038;2023-05-10T06:50:12;98192.34;;;11.66;64.24
76746;BME280;65671;49.976;20.038;2023-05-10T06:52:38;98193.09;;;11.81;64.09
76746;BME280;65671;49.976;20.038;2023-05-10T06:55:04;98196.56;;;11.89;62.71
76746;BME280;65671;49.976;20.038;2023-05-10T06:57:30;98197.59;;;12.16;63.58
76746;BME280;65671;49.976;20.038;2023-05-10T07:00:00;98190.66;;;12.08;65.89
76746;BME280;65671;49.976;20.038;2023-05-10T07:02:26;98187.47;;;12.23;61.54
76746;BME280;65671;49.976;20.038;2023-05-10T07:04:52;98193.66;;;12.24;62.18
76746;BME280;65671;49.976;20.038;2023-05-10T07:07:18;98188.34;;;12.06;62.65
76746;BME280;65671;49.976;20.038;2023-05-10T07:09:44;98185.78;;;12.40;62.72
76746;BME280;65671;49.976;20.038;2023-05-10T07:12:10;98193.56;;;12.38;62.00
76746;BME280;65671;49.976;20.038;2023-05-10T07:14:35;98191.91;;;12.55;63.40
76746;BME280;65671;49.976;20.038;2023-05-10T07:17:01;98193.31;;;12.73;63.04
76746;BME280;65671;49.976;20.038;2023-05-10T07:19:26;98190.13;;;12.85;59.33
76746;BME280;65671;49.976;20.038;2023-05-10T07:21:52;98206.84;;;13.28;61.86
76746;BME280;65671;49.976;20.038;2023-05-10T07:24:17;98197.53;;;13.26;60.30
76746;BME280;65671;49.976;20.038;2023-05-10T07:26:43;98198.63;;;13.32;59.14
76746;BME280;65671;49.976;20.038;2023-05-10T07:29:09;98196.59;;;13.43;59.03
76746;BME280;65671;49.976;20.038;2023-05-10T07:31:35;98186.66;;;13.63;57.32
76746;BME280;65671;49.976;20.038;2023-05-10T07:34:00;98180.28;;;13.43;57.87
76746;BME280;65671;49.976;20.038;2023-05-10T07:36:26;98182.88;;;13.54;57.98
76746;BME280;65671;49.976;20.038;2023-05-10T07:38:52;98180.31;;;14.04;61.18
76746;BME280;65671;49.976;20.038;2023-05-10T07:41:18;98181.03;;;14.08;57.86
76746;BME280;65671;49.976;20.038;2023-05-10T07:43:44;98181.66;;;14.19;59.12
76746;BME280;65671;49.976;20.038;2023-05-10T07:46:09;98172.25;;;14.23;51.93
76746;BME280;65671;49.976;20.038;2023-05-10T07:48:36;98178.78;;;14.56;55.92
76746;BME280;65671;49.976;20.038;2023-05-10T07:51:02;98170.75;;;14.49;54.43
76746;BME280;65671;49.976;20.038;2023-05-10T07:53:27;98173.78;;;14.78;54.44
76746;BME280;65671;49.976;20.038;2023-05-10T07:55:59;98175.97;;;14.86;54.31
76746;BME280;65671;49.976;20.038;2023-05-10T07:58:25;98173.72;;;14.81;50.77
76746;BME280;65671;49.976;20.038;2023-05-10T08:00:50;98176.63;;;14.94;56.02
76746;BME280;65671;49.976;20.038;2023-05-10T08:03:16;98165.72;;;15.17;54.51
76746;BME280;65671;49.976;20.038;2023-05-10T08:05:41;98176.41;;;15.51;56.81
76746;BME280;65671;49.976;20.038;2023-05-10T08:08:07;98169.44;;;15.46;47.27
76746;BME280;65671;49.976;20.038;2023-05-10T08:10:33;98167.13;;;15.45;53.73
76746;BME280;65671;49.976;20.038;2023-05-10T08:12:58;98166.41;;;15.64;53.90
76746;BME280;65671;49.976;20.038;2023-05-10T08:15:24;98167.72;;;15.56;51.93
76746;BME280;65671;49.976;20.038;2023-05-10T08:17:53;98170.94;;;15.51;50.52
76746;BME280;65671;49.976;20.038;2023-05-10T08:20:19;98162.84;;;15.67;49.19
76746;BME280;65671;49.976;20.038;2023-05-10T08:22:45;98161.63;;;15.88;52.21
76746;BME280;65671;49.976;20.038;2023-05-10T08:25:11;98167.28;;;15.77;45.78
76746;BME280;65671;49.976;20.038;2023-05-10T08:27:37;98163.16;;;15.89;50.44
76746;BME280;65671;49.976;20.038;2023-05-10T08:30:02;98158.16;;;15.68;51.12
76746;BME280;65671;49.976;20.038;2023-05-10T08:32:28;98163.03;;;15.56;46.74
76746;BME280;65671;49.976;20.038;2023-05-10T08:34:55;98162.41;;;15.88;49.76
76746;BME280;65671;49.976;20.038;2023-05-10T08:37:23;98161.06;;;16.12;50.49
76746;BME280;65671;49.976;20.038;2023-05-10T08:39:48;98167.25;;;16.16;48.70
76746;BME280;65671;49.976;20.038;2023-05-10T08:42:16;98166.25;;;16.27;48.88
76746;BME280;65671;49.976;20.038;2023-05-10T08:44:45;98157.97;;;16.46;51.10
76746;BME280;65671;49.976;20.038;2023-05-10T08:47:15;98166.06;;;16.34;49.23
76746;BME280;65671;49.976;20.038;2023-05-10T08:49:42;98168.47;;;16.48;50.01
76746;BME280;65671;49.976;20.038;2023-05-10T08:52:10;98162.66;;;16.46;48.20
76746;BME280;65671;49.976;20.038;2023-05-10T08:54:38;98163.78;;;16.48;49.90
76746;BME280;65671;49.976;20.038;2023-05-10T08:57:04;98172.38;;;16.66;53.85
76746;BME280;65671;49.976;20.038;2023-05-10T08:59:30;98163.59;;;16.23;47.75
76746;BME280;65671;49.976;20.038;2023-05-10T09:01:57;98164.53;;;16.33;46.16
76746;BME280;65671;49.976;20.038;2023-05-10T09:04:24;98164.69;;;16.26;47.89
76746;BME280;65671;49.976;20.038;2023-05-10T09:06:49;98165.38;;;16.30;48.83
76746;BME280;65671;49.976;20.038;2023-05-10T09:09:17;98160.53;;;16.53;48.88
76746;BME280;65671;49.976;20.038;2023-05-10T09:11:43;98164.50;;;16.68;48.59
76746;BME280;65671;49.976;20.038;2023-05-10T09:14:10;98159.13;;;16.65;44.70
76746;BME280;65671;49.976;20.038;2023-05-10T09:16:37;98153.31;;;16.79;48.76
76746;BME280;65671;49.976;20.038;2023-05-10T09:19:03;98163.47;;;16.79;48.08
76746;BME280;65671;49.976;20.038;2023-05-10T09:21:29;98158.38;;;16.45;46.52
76746;BME280;65671;49.976;20.038;2023-05-10T09:23:55;98158.34;;;16.81;46.50
76746;BME280;65671;49.976;20.038;2023-05-10T09:26:24;98157.50;;;16.67;45.38
76746;BME280;65671;49.976;20.038;2023-05-10T09:28:57;98159.44;;;16.83;49.31
76746;BME280;65671;49.976;20.038;2023-05-10T09:31:23;98162.78;;;16.74;42.15
76746;BME280;65671;49.976;20.038;2023-05-10T09:33:51;98163.72;;;16.84;46.12
76746;BME280;65671;49.976;20.038;2023-05-10T09:36:17;98164.28;;;16.43;40.63
76746;BME280;65671;49.976;20.038;2023-05-10T09:38:51;98165.88;;;16.77;43.10
76746;BME280;65671;49.976;20.038;2023-05-10T09:41:18;98157.56;;;16.96;46.37
76746;BME280;65671;49.976;20.038;2023-05-10T09:43:44;98161.50;;;16.95;41.22
76746;BME280;65671;49.976;20.038;2023-05-10T09:46:09;98160.78;;;17.23;44.33
76746;BME280;65671;49.976;20.038;2023-05-10T09:48:42;98163.81;;;16.97;46.13
76746;BME280;65671;49.976;20.038;2023-05-10T09:51:08;98150.63;;;17.37;46.35
76746;BME280;65671;49.976;20.038;2023-05-10T09:53:33;98154.84;;;17.54;43.20
76746;BME280;65671;49.976;20.038;2023-05-10T09:55:59;98148.25;;;17.39;41.05
76746;BME280;65671;49.976;20.038;2023-05-10T09:58:25;98150.06;;;17.29;41.05
76746;BME280;65671;49.976;20.038;2023-05-10T10:00:50;98147.34;;;17.58;45.92
76746;BME280;65671;49.976;20.038;2023-05-10T10:03:20;98148.66;;;17.37;39.47
76746;BME280;65671;49.976;20.038;2023-05-10T10:05:47;98149.53;;;17.63;45.07
76746;BME280;65671;49.976;20.038;2023-05-10T10:08:14;98149.66;;;17.59;44.99
76746;BME280;65671;49.976;20.038;2023-05-10T10:10:41;98144.72;;;17.67;37.02
76746;BME280;65671;49.976;20.038;2023-05-10T10:13:07;98138.69;;;17.59;38.94
76746;BME280;65671;49.976;20.038;2023-05-10T10:15:34;98150.88;;;17.71;43.17
76746;BME280;65671;49.976;20.038;2023-05-10T10:18:00;98142.66;;;17.71;37.63
76746;BME280;65671;49.976;20.038;2023-05-10T10:20:27;98133.69;;;17.70;38.89
76746;BME280;65671;49.976;20.038;2023-05-10T10:22:53;98127.84;;;17.27;41.32
76746;BME280;65671;49.976;20.038;2023-05-10T10:25:20;98113.03;;;17.53;46.50
76746;BME280;65671;49.976;20.038;2023-05-10T10:35:31;98131.19;;;18.01;46.00
76746;BME280;65671;49.976;20.038;2023-05-10T10:37:58;98119.03;;;17.90;39.34
76746;BME280;65671;49.976;20.038;2023-05-10T10:40:27;98122.56;;;18.03;41.14
76746;BME280;65671;49.976;20.038;2023-05-10T10:42:54;98116.94;;;17.94;41.89
76746;BME280;65671;49.976;20.038;2023-05-10T10:45:20;98113.13;;;18.42;40.47
76746;BME280;65671;49.976;20.038;2023-05-10T10:47:46;98120.25;;;18.26;38.15
76746;BME280;65671;49.976;20.038;2023-05-10T10:50:12;98117.50;;;18.26;36.06
76746;BME280;65671;49.976;20.038;2023-05-10T10:52:41;98115.09;;;18.41;40.95
76746;BME280;65671;49.976;20.038;2023-05-10T10:55:19;98107.84;;;18.22;39.42
76746;BME280;65671;49.976;20.038;2023-05-10T10:57:55;98094.28;;;18.06;36.22
76746;BME280;65671;49.976;20.038;2023-05-10T11:00:33;98100.75;;;18.12;38.90
76746;BME280;65671;49.976;20.038;2023-05-10T11:08:11;98089.88;;;18.21;38.75
76746;BME280;65671;49.976;20.038;2023-05-10T11:10:38;98087.78;;;18.37;43.41
76746;BME280;65671;49.976;20.038;2023-05-10T11:13:05;98089.53;;;17.81;35.05
76746;BME280;65671;49.976;20.038;2023-05-10T11:15:37;98106.44;;;18.17;41.70
76746;BME280;65671;49.976;20.038;2023-05-10T11:18:23;98095.28;;;17.16;42.56
76746;BME280;65671;49.976;20.038;2023-05-10T11:20:51;98100.50;;;16.66;45.89
76746;BME280;65671;49.976;20.038;2023-05-10T11:23:17;98103.91;;;16.38;44.47
76746;BME280;65671;49.976;20.038;2023-05-10T11:25:45;98094.25;;;16.17;45.32
76746;BME280;65671;49.976;20.038;2023-05-10T11:28:14;98093.50;;;16.65;41.00
76746;BME280;65671;49.976;20.038;2023-05-10T11:30:41;98090.53;;;17.46;41.58
76746;BME280;65671;49.976;20.038;2023-05-10T11:33:15;98084.38;;;18.33;43.06
76746;BME280;65671;49.976;20.038;2023-05-10T11:35:41;98086.25;;;18.36;43.00
76746;BME280;65671;49.976;20.038;2023-05-10T11:38:08;98079.69;;;17.83;39.66
76746;BME280;65671;49.976;20.038;2023-05-10T11:40:34;98087.47;;;17.44;43.80
76746;BME280;65671;49.976;20.038;2023-05-10T11:43:00;98083.06;;;17.62;38.97
76746;BME280;65671;49.976;20.038;2023-05-10T11:45:26;98087.78;;;17.62;40.04
76746;BME280;65671;49.976;20.038;2023-05-10T11:47:55;98077.72;;;17.84;39.22
76746;BME280;65671;49.976;20.038;2023-05-10T11:50:21;98071.78;;;18.11;41.64
76746;BME280;65671;49.976;20.038;2023-05-10T11:52:51;98078.44;;;18.60;39.51
76746;BME280;65671;49.976;20.038;2023-05-10T11:55:17;98070.91;;;18.26;41.92
76746;BME280;65671;49.976;20.038;2023-05-10T11:57:43;98070.59;;;18.24;39.97
76746;BME280;65671;49.976;20.038;2023-05-10T12:00:11;98081.88;;;18.26;45.04
76746;BME280;65671;49.976;20.038;2023-05-10T12:02:38;98072.75;;;18.42;42.07
76746;BME280;65671;49.976;20.038;2023-05-10T12:05:05;98072.78;;;18.17;40.40
76746;BME280;65671;49.976;20.038;2023-05-10T12:07:31;98064.25;;;18.15;39.76
76746;BME280;65671;49.976;20.038;2023-05-10T12:10:09;98067.75;;;18.15;37.29
76746;BME280;65671;49.976;20.038;2023-05-10T12:12:43;98068.59;;;18.37;42.43
76746;BME280;65671;49.976;20.038;2023-05-10T12:15:19;98058.09;;;18.36;41.85
76746;BME280;65671;49.976;20.038;2023-05-10T12:17:45;98066.31;;;17.98;37.99
76746;BME280;65671;49.976;20.038;2023-05-10T12:20:22;98060.81;;;18.49;42.56
76746;BME280;65671;49.976;20.038;2023-05-10T12:22:53;98066.72;;;18.60;43.11
76746;BME280;65671;49.976;20.038;2023-05-10T12:25:21;98068.78;;;18.68;45.82
76746;BME280;65671;49.976;20.038;2023-05-10T12:27:54;98056.06;;;18.62;39.33
76746;BME280;65671;49.976;20.038;2023-05-10T12:30:28;98054.16;;;18.24;43.13
76746;BME280;65671;49.976;20.038;2023-05-10T12:33:00;98059.06;;;18.17;39.12
76746;BME280;65671;49.976;20.038;2023-05-10T12:35:29;98047.75;;;18.40;42.56
76746;BME280;65671;49.976;20.038;2023-05-10T12:37:55;98038.81;;;18.14;40.31
76746;BME280;65671;49.976;20.038;2023-05-10T12:40:21;98046.34;;;18.23;40.02
76746;BME280;65671;49.976;20.038;2023-05-10T12:42:46;98059.13;;;18.64;45.66
76746;BME280;65671;49.976;20.038;2023-05-10T12:45:12;98044.44;;;18.58;40.95
76746;BME280;65671;49.976;20.038;2023-05-10T12:47:38;98047.84;;;18.62;39.72
76746;BME280;65671;49.976;20.038;2023-05-10T12:50:04;98040.59;;;18.68;42.45
76746;BME280;65671;49.976;20.038;2023-05-10T12:52:31;98037.25;;;18.73;43.61
76746;BME280;65671;49.976;20.038;2023-05-10T12:54:58;98037.31;;;18.60;41.03
76746;BME280;65671;49.976;20.038;2023-05-10T12:57:24;98034.97;;;18.71;39.66
76746;BME280;65671;49.976;20.038;2023-05-10T12:59:50;98035.41;;;18.70;39.36
76746;BME280;65671;49.976;20.038;2023-05-10T13:02:16;98031.28;;;18.87;42.00
76746;BME280;65671;49.976;20.038;2023-05-10T13:04:44;98030.66;;;19.26;43.26
76746;BME280;65671;49.976;20.038;2023-05-10T13:07:10;98032.69;;;19.35;42.00
76746;BME280;65671;49.976;20.038;2023-05-10T13:09:35;98031.88;;;19.04;40.78
76746;BME280;65671;49.976;20.038;2023-05-10T13:12:01;98026.69;;;18.84;43.14
76746;BME280;65671;49.976;20.038;2023-05-10T13:14:27;98027.84;;;18.74;43.92
76746;BME280;65671;49.976;20.038;2023-05-10T13:16:53;98017.63;;;18.74;42.12